sensor_id;sensor_type;location;lat;lon;timestamp;pressure;altitude;pressure_sealevel;temperature;humidity
30730;BME280;17476;48.458;7.928;2023-05-20T00:00:28;100038.81;;;14.84;73.04
30730;BME280;17476;48.458;7.928;2023-05-20T00:02:54;100037.09;;;14.76;73.51
30730;BME280;17476;48.458;7.928;2023-05-20T00:05:22;100037.41;;;14.66;74.38
30730;BME280;17476;48.458;7.928;2023-05-20T00:07:48;100032.53;;;14.63;73.90
30730;BME280;17476;48.458;7.928;2023-05-20T00:10:14;100033.97;;;14.66;73.89
30730;BME280;17476;48.458;7.928;2023-05-20T00:12:40;100034.53;;;14.61;74.14
30730;BME280;17476;48.458;7.928;2023-05-20T00:15:06;100027.91;;;14.65;74.14
30730;BME280;17476;48.458;7.928;2023-05-20T00:17:32;100025.81;;;14.61;74.72
30730;BME280;17476;48.458;7.928;2023-05-20T00:19:58;100023.50;;;14.51;75.94
30730;BME280;17476;48.458;7.928;2023-05-20T00:22:24;100027.78;;;14.37;76.49
30730;BME280;17476;48.458;7.928;2023-05-20T00:24:50;100020.91;;;14.36;75.28
30730;BME280;17476;48.458;7.928;2023-05-20T00:27:16;100017.50;;;14.42;75.93
30730;BME280;17476;48.458;7.928;2023-05-20T00:29:42;100024.44;;;14.29;77.43
30730;BME280;17476;48.458;7.928;2023-05-20T00:32:08;100020.09;;;14.21;76.71
30730;BME280;17476;48.458;7.928;2023-05-20T00:34:33;100025.38;;;14.06;79.78
30730;BME280;17476;48.458;7.928;2023-05-20T00:37:00;100024.47;;;14.14;78.74
30730;BME280;17476;48.458;7.928;2023-05-20T00:39:26;100021.50;;;14.02;78.75
30730;BME280;17476;48.458;7.928;2023-05-20T00:41:51;100020.03;;;14.00;79.77
30730;BME280;17476;48.458;7.928;2023-05-20T00:44:17;100022.59;;;13.93;79.88
30730;BME280;17476;48.458;7.928;2023-05-20T00:46:45;100017.78;;;13.97;78.17
30730;BME280;17476;48.458;7.928;2023-05-20T00:49:12;100013.31;;;14.12;77.13
30730;BME280;17476;48.458;7.928;2023-05-20T00:51:38;100014.94;;;14.13;77.06
30730;BME280;17476;48.458;7.928;2023-05-20T00:54:04;100016.03;;;14.18;75.80
30730;BME280;17476;48.458;7.928;2023-05-20T00:56:31;100018.53;;;14.27;76.00
30730;BME280;17476;48.458;7.928;2023-05-20T00:58:57;100021.06;;;14.35;75.32
30730;BME280;17476;48.458;7.928;2023-05-20T01:01:22;100018.69;;;14.40;74.10
30730;BME280;17476;48.458;7.928;2023-05-20T01:03:48;100019.50;;;14.40;74.44
30730;BME280;17476;48.458;7.928;2023-05-20T01:06:14;100018.13;;;14.44;74.70
30730;BME280;17476;48.458;7.928;2023-05-20T01:08:40;100006.44;;;14.47;74.75
30730;BME280;17476;48.458;7.928;2023-05-20T01:11:41;100004.44;;;14.49;74.29
30730;BME280;17476;48.458;7.928;2023-05-20T01:14:11;99999.44;;;14.54;74.22
30730;BME280;17476;48.458;7.928;2023-05-20T01:16:38;100008.13;;;14.55;74.27
30730;BME280;17476;48.458;7.928;2023-05-20T01:19:25;100005.16;;;14.58;73.67
30730;BME280;17476;48.458;7.928;2023-05-20T01:21:52;100005.16;;;14.58;73.72
30730;BME280;17476;48.458;7.928;2023-05-20T01:24:18;99999.06;;;14.57;74.46
30730;BME280;17476;48.458;7.928;2023-05-20T01:26:45;99993.00;;;14.57;74.10
30730;BME280;17476;48.458;7.928;2023-05-20T01:29:13;99991.78;;;14.59;74.15
30730;BME280;17476;48.458;7.928;2023-05-20T01:31:43;99998.88;;;14.59;74.22
30730;BME280;17476;48.458;7.928;2023-05-20T01:34:11;99982.88;;;14.60;73.75
30730;BME280;17476;48.458;7.928;2023-05-20T01:36:38;99983.69;;;14.61;73.46
30730;BME280;17476;48.458;7.928;2023-05-20T01:39:05;99978.25;;;14.62;73.62
30730;BME280;17476;48.458;7.928;2023-05-20T01:41:32;99986.13;;;14.62;73.49
30730;BME280;17476;48.458;7.928;2023-05-20T01:44:00;99980.72;;;14.64;73.67
30730;BME280;17476;48.458;7.928;2023-05-20T01:46:26;99991.78;;;14.59;73.96
30730;BME280;17476;48.458;7.928;2023-05-20T01:48:51;99982.28;;;14.58;74.12
30730;BME280;17476;48.458;7.928;2023-05-20T01:51:17;99982.28;;;14.58;73.67
30730;BME280;17476;48.458;7.928;2023-05-20T01:53:43;99973.97;;;14.61;73.82
30730;BME280;17476;48.458;7.928;2023-05-20T01:56:09;99969.31;;;14.57;73.79
30730;BME280;17476;48.458;7.928;2023-05-20T01:58:35;99966.84;;;14.55;73.71
30730;BME280;17476;48.458;7.928;2023-05-20T02:01:00;99968.66;;;14.55;74.16
30730;BME280;17476;48.458;7.928;2023-05-20T02:03:26;99974.94;;;14.54;73.98
30730;BME280;17476;48.458;7.928;2023-05-20T02:05:52;99973.13;;;14.54;73.66
30730;BME280;17476;48.458;7.928;2023-05-20T02:08:18;99968.84;;;14.53;73.89
30730;BME280;17476;48.458;7.928;2023-05-20T02:10:46;99958.88;;;14.48;73.77
30730;BME280;17476;48.458;7.928;2023-05-20T02:13:12;99956.25;;;14.48;73.98
30730;BME280;17476;48.458;7.928;2023-05-20T02:15:41;99952.00;;;14.47;73.60
30730;BME280;17476;48.458;7.928;2023-05-20T02:18:07;99956.63;;;14.45;73.56
30730;BME280;17476;48.458;7.928;2023-05-20T02:20:36;99946.09;;;14.45;73.82
30730;BME280;17476;48.458;7.928;2023-05-20T02:23:02;99938.19;;;14.45;73.78
30730;BME280;17476;48.458;7.928;2023-05-20T02:25:31;99947.44;;;14.41;73.67
30730;BME280;17476;48.458;7.928;2023-05-20T02:27:57;99941.66;;;14.46;72.95
30730;BME280;17476;48.458;7.928;2023-05-20T02:30:23;99947.28;;;14.43;73.02
30730;BME280;17476;48.458;7.928;2023-05-20T02:32:48;99948.25;;;14.42;73.60
30730;BME280;17476;48.458;7.928;2023-05-20T02:35:14;99949.91;;;14.43;73.06
30730;BME280;17476;48.458;7.928;2023-05-20T02:37:41;99949.06;;;14.42;73.22
30730;BME280;17476;48.458;7.928;2023-05-20T02:40:09;99943.00;;;14.42;73.24
30730;BME280;17476;48.458;7.928;2023-05-20T02:42:35;99948.09;;;14.43;73.04
30730;BME280;17476;48.458;7.928;2023-05-20T02:45:01;99936.00;;;14.49;72.47
30730;BME280;17476;48.458;7.928;2023-05-20T02:47:27;99945.56;;;14.50;72.94
30730;BME280;17476;48.458;7.928;2023-05-20T02:49:52;99948.66;;;14.39;74.91
30730;BME280;17476;48.458;7.928;2023-05-20T02:52:18;99953.41;;;14.29;76.23
30730;BME280;17476;48.458;7.928;2023-05-20T02:54:45;99950.88;;;14.20;76.17
30730;BME280;17476;48.458;7.928;2023-05-20T02:57:11;99949.81;;;14.15;76.90
30730;BME280;17476;48.458;7.928;2023-05-20T02:59:37;99951.63;;;14.14;77.43
30730;BME280;17476;48.458;7.928;2023-05-20T03:02:03;99954.34;;;14.21;77.40
30730;BME280;17476;48.458;7.928;2023-05-20T03:04:29;99952.63;;;14.13;77.39
30730;BME280;17476;48.458;7.928;2023-05-20T03:06:56;99953.72;;;14.19;77.37
30730;BME280;17476;48.458;7.928;2023-05-20T03:09:23;99957.91;;;14.13;77.33
30730;BME280;17476;48.458;7.928;2023-05-20T03:11:49;99957.16;;;14.19;77.52
30730;BME280;17476;48.458;7.928;2023-05-20T03:14:15;99956.91;;;14.14;77.51
30730;BME280;17476;48.458;7.928;2023-05-20T03:16:41;99957.16;;;14.19;77.72
30730;BME280;17476;48.458;7.928;2023-05-20T03:19:07;99953.66;;;14.12;77.64
30730;BME280;17476;48.458;7.928;2023-05-20T03:21:33;99956.66;;;14.09;78.16
30730;BME280;17476;48.458;7.928;2023-05-20T03:23:58;99955.78;;;14.02;78.89
30730;BME280;17476;48.458;7.928;2023-05-20T03:26:24;99955.38;;;14.05;78.67
30730;BME280;17476;48.458;7.928;2023-05-20T03:28:50;99953.22;;;13.94;78.86
30730;BME280;17476;48.458;7.928;2023-05-20T03:31:16;99949.16;;;13.91;78.36
30730;BME280;17476;48.458;7.928;2023-05-20T03:33:42;99959.50;;;13.93;78.74
30730;BME280;17476;48.458;7.928;2023-05-20T03:36:10;99940.72;;;13.96;78.15
30730;BME280;17476;48.458;7.928;2023-05-20T03:38:35;99951.50;;;14.01;77.96
30730;BME280;17476;48.458;7.928;2023-05-20T03:41:01;99938.25;;;14.09;77.27
30730;BME280;17476;48.458;7.928;2023-05-20T03:43:27;99935.84;;;14.14;76.57
30730;BME280;17476;48.458;7.928;2023-05-20T03:45:53;99936.50;;;14.16;76.75
30730;BME280;17476;48.458;7.928;2023-05-20T03:48:19;99934.91;;;14.22;75.71
30730;BME280;17476;48.458;7.928;2023-05-20T03:50:45;99938.38;;;14.23;75.65
30730;BME280;17476;48.458;7.928;2023-05-20T03:53:10;99945.44;;;14.22;76.64
30730;BME280;17476;48.458;7.928;2023-05-20T03:55:36;99951.63;;;14.14;77.55
30730;BME280;17476;48.458;7.928;2023-05-20T03:58:03;99945.25;;;13.87;79.59
30730;BME280;17476;48.458;7.928;2023-05-20T04:00:29;99941.94;;;13.79;80.41
30730;BME280;17476;48.458;7.928;2023-05-20T04:02:56;99942.47;;;13.74;80.39
30730;BME280;17476;48.458;7.928;2023-05-20T04:05:22;99936.06;;;13.77;79.52
30730;BME280;17476;48.458;7.928;2023-05-20T04:07:49;99940.19;;;13.86;78.69
30730;BME280;17476;48.458;7.928;2023-05-20T04:10:18;99937.91;;;13.98;78.47
30730;BME280;17476;48.458;7.928;2023-05-20T04:12:45;99936.97;;;14.05;78.05
30730;BME280;17476;48.458;7.928;2023-05-20T04:15:11;99931.59;;;14.13;77.25
30730;BME280;17476;48.458;7.928;2023-05-20T04:17:37;99924.16;;;14.17;77.61
30730;BME280;17476;48.458;7.928;2023-05-20T04:20:06;99927.22;;;14.20;76.97
30730;BME280;17476;48.458;7.928;2023-05-20T04:22:33;99919.03;;;14.30;76.27
30730;BME280;17476;48.458;7.928;2023-05-20T04:24:59;99919.25;;;14.35;76.41
30730;BME280;17476;48.458;7.928;2023-05-20T04:27:27;99926.41;;;14.41;76.68
30730;BME280;17476;48.458;7.928;2023-05-20T04:29:54;99923.53;;;14.36;76.40
30730;BME280;17476;48.458;7.928;2023-05-20T04:32:20;99924.34;;;14.37;76.58
30730;BME280;17476;48.458;7.928;2023-05-20T04:34:46;99927.00;;;14.37;76.76
30730;BME280;17476;48.458;7.928;2023-05-20T04:37:13;99933.28;;;14.42;76.79
30730;BME280;17476;48.458;7.928;2023-05-20T04:39:38;99923.06;;;14.47;76.63
30730;BME280;17476;48.458;7.928;2023-05-20T04:42:04;99921.69;;;14.52;76.37
30730;BME280;17476;48.458;7.928;2023-05-20T04:44:31;99919.72;;;14.60;75.77
30730;BME280;17476;48.458;7.928;2023-05-20T04:46:56;99919.09;;;14.58;76.01
30730;BME280;17476;48.458;7.928;2023-05-20T04:49:24;99914.47;;;14.60;76.17
30730;BME280;17476;48.458;7.928;2023-05-20T04:51:51;99910.88;;;14.68;76.11
30730;BME280;17476;48.458;7.928;2023-05-20T04:54:17;99923.47;;;14.72;75.54
30730;BME280;17476;48.458;7.928;2023-05-20T04:56:44;99918.88;;;14.81;75.97
30730;BME280;17476;48.458;7.928;2023-05-20T04:59:11;99922.31;;;14.82;75.52
30730;BME280;17476;48.458;7.928;2023-05-20T05:01:37;99922.16;;;14.90;75.57
30730;BME280;17476;48.458;7.928;2023-05-20T05:04:03;99921.63;;;15.01;75.00
30730;BME280;17476;48.458;7.928;2023-05-20T05:06:29;99915.03;;;15.12;74.64
30730;BME280;17476;48.458;7.928;2023-05-20T05:08:55;99911.81;;;15.16;74.18
30730;BME280;17476;48.458;7.928;2023-05-20T05:11:21;99912.88;;;15.28;74.80
30730;BME280;17476;48.458;7.928;2023-05-20T05:13:47;99915.56;;;15.35;74.34
30730;BME280;17476;48.458;7.928;2023-05-20T05:16:13;99917.41;;;15.41;74.13
30730;BME280;17476;48.458;7.928;2023-05-20T05:18:39;99917.69;;;15.53;73.04
30730;BME280;17476;48.458;7.928;2023-05-20T05:21:05;99910.25;;;15.63;73.17
30730;BME280;17476;48.458;7.928;2023-05-20T05:23:32;99910.47;;;15.68;73.10
30730;BME280;17476;48.458;7.928;2023-05-20T05:25:58;99913.34;;;15.80;72.54
30730;BME280;17476;48.458;7.928;2023-05-20T05:28:24;99911.91;;;15.77;72.22
30730;BME280;17476;48.458;7.928;2023-05-20T05:30:53;99919.44;;;15.80;72.46
30730;BME280;17476;48.458;7.928;2023-05-20T05:33:19;99916.00;;;15.87;72.09
30730;BME280;17476;48.458;7.928;2023-05-20T05:35:45;99929.59;;;15.90;72.28
30730;BME280;17476;48.458;7.928;2023-05-20T05:38:11;99926.16;;;15.96;72.10
30730;BME280;17476;48.458;7.928;2023-05-20T05:40:36;99931.25;;;15.98;71.56
30730;BME280;17476;48.458;7.928;2023-05-20T05:43:02;99917.91;;;16.13;71.65
30730;BME280;17476;48.458;7.928;2023-05-20T05:45:32;99910.19;;;16.18;71.33
30730;BME280;17476;48.458;7.928;2023-05-20T05:48:03;99910.84;;;16.33;71.38
30730;BME280;17476;48.458;7.928;2023-05-20T05:50:28;99901.69;;;16.55;71.38
30730;BME280;17476;48.458;7.928;2023-05-20T05:52:54;99902.91;;;16.79;70.77
30730;BME280;17476;48.458;7.928;2023-05-20T05:55:20;99900.88;;;17.08;69.35
30730;BME280;17476;48.458;7.928;2023-05-20T05:57:46;99903.06;;;17.17;68.97
30730;BME280;17476;48.458;7.928;2023-05-20T06:00:12;99907.34;;;17.18;68.39
30730;BME280;17476;48.458;7.928;2023-05-20T06:02:38;99899.44;;;17.05;67.97
30730;BME280;17476;48.458;7.928;2023-05-20T06:05:04;99903.91;;;17.05;68.10
30730;BME280;17476;48.458;7.928;2023-05-20T06:07:30;99904.53;;;17.00;68.06
30730;BME280;17476;48.458;7.928;2023-05-20T06:09:56;99909.63;;;17.02;68.21
30730;BME280;17476;48.458;7.928;2023-05-20T06:12:23;99909.78;;;17.07;68.52
30730;BME280;17476;48.458;7.928;2023-05-20T06:14:48;99905.69;;;17.24;67.93
30730;BME280;17476;48.458;7.928;2023-05-20T06:17:14;99909.31;;;17.43;67.93
30730;BME280;17476;48.458;7.928;2023-05-20T06:19:40;99896.59;;;17.71;66.95
30730;BME280;17476;48.458;7.928;2023-05-20T06:22:06;99897.63;;;18.09;66.47
30730;BME280;17476;48.458;7.928;2023-05-20T06:24:33;99904.72;;;18.40;63.95
30730;BME280;17476;48.458;7.928;2023-05-20T06:26:59;99903.91;;;18.71;64.82
30730;BME280;17476;48.458;7.928;2023-05-20T06:29:25;99900.13;;;19.03;63.58
30730;BME280;17476;48.458;7.928;2023-05-20T06:31:50;99898.06;;;19.42;61.47
30730;BME280;17476;48.458;7.928;2023-05-20T06:34:16;99905.88;;;19.74;61.67
30730;BME280;17476;48.458;7.928;2023-05-20T06:36:42;99896.66;;;20.06;60.65
30730;BME280;17476;48.458;7.928;2023-05-20T06:39:08;99898.41;;;20.12;58.58
30730;BME280;17476;48.458;7.928;2023-05-20T06:41:39;99899.63;;;20.10;59.17
30730;BME280;17476;48.458;7.928;2023-05-20T06:44:06;99894.69;;;20.13;58.57
30730;BME280;17476;48.458;7.928;2023-05-20T06:46:33;99887.41;;;20.09;57.77
30730;BME280;17476;48.458;7.928;2023-05-20T06:48:59;99890.16;;;20.02;58.09
30730;BME280;17476;48.458;7.928;2023-05-20T06:51:26;99893.38;;;19.93;58.86
30730;BME280;17476;48.458;7.928;2023-05-20T06:53:53;99880.19;;;19.86;58.78
30730;BME280;17476;48.458;7.928;2023-05-20T06:56:19;99882.06;;;19.97;58.96
30730;BME280;17476;48.458;7.928;2023-05-20T06:58:46;99881.34;;;19.90;58.44
30730;BME280;17476;48.458;7.928;2023-05-20T07:01:12;99882.13;;;19.79;58.85
30730;BME280;17476;48.458;7.928;2023-05-20T07:03:38;99881.97;;;19.74;59.19
30730;BME280;17476;48.458;7.928;2023-05-20T07:06:05;99881.84;;;19.69;59.38
30730;BME280;17476;48.458;7.928;2023-05-20T07:08:30;99883.25;;;19.71;59.28
30730;BME280;17476;48.458;7.928;2023-05-20T07:10:56;99878.63;;;19.67;59.35
30730;BME280;17476;48.458;7.928;2023-05-20T07:13:22;99878.84;;;19.65;59.68
30730;BME280;17476;48.458;7.928;2023-05-20T07:16:05;99866.91;;;19.86;59.99
30730;BME280;17476;48.458;7.928;2023-05-20T07:18:39;99866.84;;;20.04;59.11
30730;BME280;17476;48.458;7.928;2023-05-20T07:21:05;99860.50;;;20.05;58.35
30730;BME280;17476;48.458;7.928;2023-05-20T07:23:31;99864.69;;;20.25;59.27
30730;BME280;17476;48.458;7.928;2023-05-20T07:25:56;99870.19;;;20.53;58.32
30730;BME280;17476;48.458;7.928;2023-05-20T07:28:22;99859.91;;;20.68;57.68
30730;BME280;17476;48.458;7.928;2023-05-20T07:30:48;99864.88;;;20.77;57.58
30730;BME280;17476;48.458;7.928;2023-05-20T07:33:17;99862.66;;;20.97;56.75
30730;BME280;17476;48.458;7.928;2023-05-20T07:35:44;99858.94;;;21.21;56.38
30730;BME280;17476;48.458;7.928;2023-05-20T07:38:11;99859.69;;;21.45;55.72
30730;BME280;17476;48.458;7.928;2023-05-20T07:40:38;99858.88;;;21.73;55.61
30730;BME280;17476;48.458;7.928;2023-05-20T07:43:07;99853.59;;;21.90;54.47
30730;BME280;17476;48.458;7.928;2023-05-20T07:45:36;99852.63;;;21.96;53.84
30730;BME280;17476;48.458;7.928;2023-05-20T07:48:03;99850.22;;;21.95;53.66
30730;BME280;17476;48.458;7.928;2023-05-20T07:50:29;99849.97;;;21.96;53.58
30730;BME280;17476;48.458;7.928;2023-05-20T07:52:55;99843.41;;;22.16;54.11
30730;BME280;17476;48.458;7.928;2023-05-20T07:55:21;99839.56;;;22.62;55.51
30730;BME280;17476;48.458;7.928;2023-05-20T07:57:46;99832.63;;;23.22;52.14
30730;BME280;17476;48.458;7.928;2023-05-20T08:00:12;99820.63;;;23.68;50.80
30730;BME280;17476;48.458;7.928;2023-05-20T08:02:39;99823.22;;;23.90;48.42
30730;BME280;17476;48.458;7.928;2023-05-20T08:05:05;99818.84;;;24.11;48.75
30730;BME280;17476;48.458;7.928;2023-05-20T08:07:31;99808.94;;;24.43;47.85
30730;BME280;17476;48.458;7.928;2023-05-20T08:09:57;99808.09;;;24.80;48.37
30730;BME280;17476;48.458;7.928;2023-05-20T08:12:22;99797.84;;;25.24;46.73
30730;BME280;17476;48.458;7.928;2023-05-20T08:14:48;99801.09;;;25.37;45.77
30730;BME280;17476;48.458;7.928;2023-05-20T08:17:14;99803.56;;;25.69;45.13
30730;BME280;17476;48.458;7.928;2023-05-20T08:19:40;99800.66;;;25.91;44.47
30730;BME280;17476;48.458;7.928;2023-05-20T08:22:05;99807.38;;;26.08;45.57
30730;BME280;17476;48.458;7.928;2023-05-20T08:24:32;99800.13;;;26.04;43.60
30730;BME280;17476;48.458;7.928;2023-05-20T08:26:58;99798.22;;;26.14;44.25
30730;BME280;17476;48.458;7.928;2023-05-20T08:29:24;99797.44;;;26.09;43.51
30730;BME280;17476;48.458;7.928;2023-05-20T08:31:49;99790.72;;;26.27;43.76
30730;BME280;17476;48.458;7.928;2023-05-20T08:34:16;99782.66;;;26.47;42.41
30730;BME280;17476;48.458;7.928;2023-05-20T08:36:42;99786.28;;;26.82;44.22
30730;BME280;17476;48.458;7.928;2023-05-20T08:39:09;99786.75;;;27.09;42.19
30730;BME280;17476;48.458;7.928;2023-05-20T08:41:37;99788.47;;;27.39;41.25
30730;BME280;17476;48.458;7.928;2023-05-20T08:44:04;99790.53;;;27.53;41.62
30730;BME280;17476;48.458;7.928;2023-05-20T08:46:31;99791.53;;;28.01;42.84
30730;BME280;17476;48.458;7.928;2023-05-20T08:48:59;99792.34;;;28.31;39.24
30730;BME280;17476;48.458;7.928;2023-05-20T08:51:26;99793.75;;;28.52;41.31
30730;BME280;17476;48.458;7.928;2023-05-20T08:53:53;99787.22;;;28.82;39.15
30730;BME280;17476;48.458;7.928;2023-05-20T08:56:19;99787.41;;;28.86;39.40
30730;BME280;17476;48.458;7.928;2023-05-20T08:58:46;99787.56;;;28.99;39.52
30730;BME280;17476;48.458;7.928;2023-05-20T09:01:12;99785.31;;;29.06;38.34
30730;BME280;17476;48.458;7.928;2023-05-20T09:03:38;99780.59;;;29.17;36.87
30730;BME280;17476;48.458;7.928;2023-05-20T09:06:08;99781.81;;;29.44;38.06
30730;BME280;17476;48.458;7.928;2023-05-20T09:08:34;99785.16;;;29.73;38.05
30730;BME280;17476;48.458;7.928;2023-05-20T09:11:01;99792.00;;;29.84;36.59
30730;BME280;17476;48.458;7.928;2023-05-20T09:13:31;99786.44;;;29.62;36.00
30730;BME280;17476;48.458;7.928;2023-05-20T09:15:59;99787.44;;;29.47;36.11
30730;BME280;17476;48.458;7.928;2023-05-20T09:18:26;99791.22;;;29.27;37.46
30730;BME280;17476;48.458;7.928;2023-05-20T09:20:53;99781.94;;;28.96;37.61
30730;BME280;17476;48.458;7.928;2023-05-20T09:23:20;99790.31;;;28.94;37.31
30730;BME280;17476;48.458;7.928;2023-05-20T09:25:51;99785.50;;;28.91;38.79
30730;BME280;17476;48.458;7.928;2023-05-20T09:28:23;99788.47;;;28.90;37.12
30730;BME280;17476;48.458;7.928;2023-05-20T09:30:57;99790.06;;;28.43;37.28
30730;BME280;17476;48.458;7.928;2023-05-20T09:33:29;99790.06;;;28.14;38.83
30730;BME280;17476;48.458;7.928;2023-05-20T09:36:22;99799.00;;;28.04;39.09
30730;BME280;17476;48.458;7.928;2023-05-20T09:38:51;99785.31;;;28.06;40.33
30730;BME280;17476;48.458;7.928;2023-05-20T09:41:23;99782.50;;;28.16;40.00
30730;BME280;17476;48.458;7.928;2023-05-20T09:43:51;99778.41;;;28.23;38.64
30730;BME280;17476;48.458;7.928;2023-05-20T09:46:18;99780.53;;;28.26;39.97
30730;BME280;17476;48.458;7.928;2023-05-20T09:48:44;99774.78;;;28.62;38.91
30730;BME280;17476;48.458;7.928;2023-05-20T09:51:12;99773.72;;;29.06;38.22
30730;BME280;17476;48.458;7.928;2023-05-20T09:53:38;99777.69;;;29.14;38.09
30730;BME280;17476;48.458;7.928;2023-05-20T09:56:04;99776.88;;;28.89;38.08
30730;BME280;17476;48.458;7.928;2023-05-20T09:58:32;99762.53;;;28.75;38.38
30730;BME280;17476;48.458;7.928;2023-05-20T10:00:59;99759.22;;;28.59;38.81
30730;BME280;17476;48.458;7.928;2023-05-20T10:03:25;99754.41;;;28.56;39.68
30730;BME280;17476;48.458;7.928;2023-05-20T10:06:16;99755.59;;;28.69;38.08
30730;BME280;17476;48.458;7.928;2023-05-20T10:09:23;99743.63;;;28.56;38.79
30730;BME280;17476;48.458;7.928;2023-05-20T10:12:06;99747.72;;;28.24;39.60
30730;BME280;17476;48.458;7.928;2023-05-20T10:15:09;99745.28;;;29.00;40.06
30730;BME280;17476;48.458;7.928;2023-05-20T10:20:49;99749.63;;;29.52;37.50
30730;BME280;17476;48.458;7.928;2023-05-20T10:23:28;99741.09;;;29.45;37.23
30730;BME280;17476;48.458;7.928;2023-05-20T10:25:56;99738.34;;;29.69;37.46
30730;BME280;17476;48.458;7.928;2023-05-20T10:28:36;99735.75;;;29.78;37.19
30730;BME280;17476;48.458;7.928;2023-05-20T10:31:22;99723.31;;;29.96;36.96
30730;BME280;17476;48.458;7.928;2023-05-20T10:33:52;99718.91;;;30.00;36.87
30730;BME280;17476;48.458;7.928;2023-05-20T10:36:28;99725.81;;;30.06;36.87
30730;BME280;17476;48.458;7.928;2023-05-20T10:38:58;99727.25;;;30.17;35.65
30730;BME280;17476;48.458;7.928;2023-05-20T10:41:26;99717.72;;;30.06;36.71
30730;BME280;17476;48.458;7.928;2023-05-20T10:44:03;99705.78;;;29.79;36.39
30730;BME280;17476;48.458;7.928;2023-05-20T10:46:34;99710.69;;;29.77;36.87
30730;BME280;17476;48.458;7.928;2023-05-20T10:49:03;99706.13;;;29.91;37.57
30730;BME280;17476;48.458;7.928;2023-05-20T10:51:35;99700.38;;;30.26;37.06
30730;BME280;17476;48.458;7.928;2023-05-20T10:54:01;99700.69;;;30.38;35.80
30730;BME280;17476;48.458;7.928;2023-05-20T10:56:27;99697.84;;;30.84;36.12
30730;BME280;17476;48.458;7.928;2023-05-20T10:58:53;99695.53;;;31.28;34.16
30730;BME280;17476;48.458;7.928;2023-05-20T11:01:25;99694.53;;;31.77;34.56
30730;BME280;17476;48.458;7.928;2023-05-20T11:03:55;99695.19;;;31.74;34.50
30730;BME280;17476;48.458;7.928;2023-05-20T11:06:26;99700.72;;;31.69;33.28
30730;BME280;17476;48.458;7.928;2023-05-20T11:09:03;99704.06;;;31.66;34.24
30730;BME280;17476;48.458;7.928;2023-05-20T11:11:32;99695.47;;;31.41;34.32
30730;BME280;17476;48.458;7.928;2023-05-20T11:13:58;99692.34;;;31.25;35.55
30730;BME280;17476;48.458;7.928;2023-05-20T11:16:25;99684.72;;;31.50;35.33
30730;BME280;17476;48.458;7.928;2023-05-20T11:18:51;99692.38;;;31.57;34.35
30730;BME280;17476;48.458;7.928;2023-05-20T11:21:18;99690.44;;;31.26;34.63
30730;BME280;17476;48.458;7.928;2023-05-20T11:23:44;99683.31;;;30.94;35.96
30730;BME280;17476;48.458;7.928;2023-05-20T11:26:10;99681.22;;;30.91;34.81
30730;BME280;17476;48.458;7.928;2023-05-20T11:28:37;99678.91;;;31.20;36.75
30730;BME280;17476;48.458;7.928;2023-05-20T11:31:03;99675.06;;;31.58;35.66
30730;BME280;17476;48.458;7.928;2023-05-20T11:33:29;99670.09;;;32.13;34.70
30730;BME280;17476;48.458;7.928;2023-05-20T11:35:56;99669.59;;;32.77;33.16
30730;BME280;17476;48.458;7.928;2023-05-20T11:38:22;99659.91;;;32.93;32.86
30730;BME280;17476;48.458;7.928;2023-05-20T11:40:53;99667.06;;;33.15;31.05
30730;BME280;17476;48.458;7.928;2023-05-20T11:43:20;99661.47;;;32.77;32.71
30730;BME280;17476;48.458;7.928;2023-05-20T11:45:53;99663.09;;;32.95;32.13
30730;BME280;17476;48.458;7.928;2023-05-20T11:48:20;99659.56;;;32.69;31.77
30730;BME280;17476;48.458;7.928;2023-05-20T11:50:47;99644.94;;;32.87;32.15
30730;BME280;17476;48.458;7.928;2023-05-20T11:53:17;99646.78;;;32.78;32.35
30730;BME280;17476;48.458;7.928;2023-05-20T11:55:55;99641.06;;;32.62;31.12
30730;BME280;17476;48.458;7.928;2023-05-20T11:58:29;99647.78;;;32.08;32.69
30730;BME280;17476;48.458;7.928;2023-05-20T12:00:55;99645.38;;;31.75;33.99
30730;BME280;17476;48.458;7.928;2023-05-20T12:03:22;99644.97;;;31.50;33.92
30730;BME280;17476;48.458;7.928;2023-05-20T12:05:48;99638.69;;;31.19;33.47
30730;BME280;17476;48.458;7.928;2023-05-20T12:08:15;99639.22;;;31.07;34.06
30730;BME280;17476;48.458;7.928;2023-05-20T12:10:41;99636.28;;;30.95;35.35
30730;BME280;17476;48.458;7.928;2023-05-20T12:13:09;99629.66;;;30.79;34.53
30730;BME280;17476;48.458;7.928;2023-05-20T12:15:37;99618.78;;;30.70;35.68
30730;BME280;17476;48.458;7.928;2023-05-20T12:18:03;99621.53;;;30.79;35.71
30730;BME280;17476;48.458;7.928;2023-05-20T12:20:30;99616.94;;;30.79;34.72
30730;BME280;17476;48.458;7.928;2023-05-20T12:22:59;99624.19;;;30.70;35.77
30730;BME280;17476;48.458;7.928;2023-05-20T12:25:25;99623.06;;;30.71;36.72
30730;BME280;17476;48.458;7.928;2023-05-20T12:27:51;99622.97;;;30.76;35.82
30730;BME280;17476;48.458;7.928;2023-05-20T12:30:20;99629.34;;;30.80;35.64
30730;BME280;17476;48.458;7.928;2023-05-20T12:32:47;99615.13;;;31.11;35.26
30730;BME280;17476;48.458;7.928;2023-05-20T12:35:15;99609.72;;;31.33;34.81
30730;BME280;17476;48.458;7.928;2023-05-20T12:37:42;99606.50;;;31.62;34.98
30730;BME280;17476;48.458;7.928;2023-05-20T12:40:10;99604.28;;;32.04;34.29
30730;BME280;17476;48.458;7.928;2023-05-20T12:42:38;99608.38;;;32.32;33.89
30730;BME280;17476;48.458;7.928;2023-05-20T12:45:05;99596.75;;;32.32;33.98
30730;BME280;17476;48.458;7.928;2023-05-20T12:47:31;99597.41;;;32.46;32.18
30730;BME280;17476;48.458;7.928;2023-05-20T12:49:58;99590.03;;;32.21;33.22
30730;BME280;17476;48.458;7.928;2023-05-20T12:52:25;99593.84;;;32.20;33.06
30730;BME280;17476;48.458;7.928;2023-05-20T12:54:52;99588.56;;;32.06;33.08
30730;BME280;17476;48.458;7.928;2023-05-20T12:57:18;99595.59;;;31.76;33.30
30730;BME280;17476;48.458;7.928;2023-05-20T12:59:45;99592.31;;;31.57;34.60
30730;BME280;17476;48.458;7.928;2023-05-20T13:02:10;99590.16;;;31.36;34.84
30730;BME280;17476;48.458;7.928;2023-05-20T13:04:36;99582.38;;;31.12;34.26